createdAt,value
2018-03-28T00:00:42.348Z,99696.51
2018-03-28T00:03:09.933Z,99689.38
2018-03-28T00:05:37.625Z,99689.28
2018-03-28T00:08:05.225Z,99680.52
2018-03-28T00:10:32.813Z,99672.75
2018-03-28T00:13:00.573Z,99672.34
2018-03-28T00:15:28.183Z,99662.92
2018-03-28T00:17:55.781Z,99662.42
2018-03-28T00:20:23.414Z,99658.31
2018-03-28T00:22:51.008Z,99652.55
2018-03-28T00:25:18.600Z,99668.13
2018-03-28T00:27:46.234Z,99672.66
2018-03-28T00:30:13.830Z,99680.95
2018-03-28T00:32:41.433Z,99678.95
2018-03-28T00:35:09.073Z,99680.58
2018-03-28T00:37:36.714Z,99678.95
2018-03-28T00:40:04.314Z,99669.45
2018-03-28T00:42:31.944Z,99664.14
2018-03-28T00:44:59.542Z,99653.17
2018-03-28T00:47:27.135Z,99649.08
2018-03-28T00:49:54.763Z,99650.41
2018-03-28T00:52:22.354Z,99653.46
2018-03-28T00:54:49.950Z,99654.96
2018-03-28T00:57:17.582Z,99653.05
2018-03-28T00:59:45.191Z,99654.34
2018-03-28T01:02:12.785Z,99659.95
2018-03-28T01:04:40.440Z,99650.64
2018-03-28T01:07:08.042Z,99648.49
2018-03-28T01:09:35.629Z,99646.43
2018-03-28T01:12:03.265Z,99658.87
2018-03-28T01:14:30.862Z,99659.28
2018-03-28T01:16:58.455Z,99651.92
2018-03-28T01:19:26.093Z,99647.39
2018-03-28T01:21:53.678Z,99648.80
2018-03-28T01:24:21.267Z,99647.16
2018-03-28T01:26:48.894Z,99645.69
2018-03-28T01:29:16.489Z,99641.55
2018-03-28T01:31:44.088Z,99637.24
2018-03-28T01:34:11.714Z,99641.15
2018-03-28T01:36:39.305Z,99643.80
2018-03-28T01:39:06.919Z,99642.56
2018-03-28T01:41:34.570Z,99643.23
2018-03-28T01:44:02.169Z,99646.77
2018-03-28T01:46:29.770Z,99643.97
2018-03-28T01:48:57.411Z,99645.22
2018-03-28T01:51:25.075Z,99648.03
2018-03-28T01:53:52.674Z,99644.98
2018-03-28T01:56:20.315Z,99651.27
2018-03-28T01:58:47.900Z,99646.80
2018-03-28T02:01:15.512Z,99615.89
2018-03-28T02:03:43.174Z,99647.70
2018-03-28T02:06:10.772Z,99649.11
2018-03-28T02:08:38.363Z,99634.14
2018-03-28T02:11:05.995Z,99636.63
2018-03-28T02:13:33.589Z,99641.76
2018-03-28T02:16:01.178Z,99645.72
2018-03-28T02:18:28.800Z,99643.08
2018-03-28T02:20:56.395Z,99642.75
2018-03-28T02:23:24.012Z,99641.69
2018-03-28T02:25:51.630Z,99642.26
2018-03-28T02:28:19.232Z,99643.01
2018-03-28T02:30:46.826Z,99646.23
2018-03-28T02:33:14.460Z,99649.27
2018-03-28T02:35:42.058Z,99651.83
2018-03-28T02:38:09.654Z,99644.70
2018-03-28T02:40:37.277Z,99642.53
2018-03-28T02:43:04.907Z,99644.20
2018-03-28T02:45:32.503Z,99636.69
2018-03-28T02:48:00.144Z,99628.41
2018-03-28T02:50:27.773Z,99629.88
2018-03-28T02:52:55.376Z,99636.58
2018-03-28T02:55:23.026Z,99639.48
2018-03-28T02:57:50.628Z,99639.16
2018-03-28T03:00:18.280Z,99644.27
2018-03-28T03:02:45.932Z,99637.84
2018-03-28T03:05:13.531Z,99643.86
2018-03-28T03:07:41.130Z,99655.63
2018-03-28T03:10:08.781Z,99660.65
2018-03-28T03:12:36.372Z,99655.92
2018-03-28T03:15:03.975Z,99655.02
2018-03-28T03:17:31.615Z,99650.95
2018-03-28T03:19:59.214Z,99652.52
2018-03-28T03:22:26.804Z,99659.98
2018-03-28T03:24:54.442Z,99668.48
2018-03-28T03:27:22.044Z,99665.69
2018-03-28T03:29:49.651Z,99670.06
2018-03-28T03:32:17.289Z,99658.24
2018-03-28T03:34:44.882Z,99655.75
2018-03-28T03:37:12.474Z,99651.22
2018-03-28T03:39:40.099Z,99651.95
2018-03-28T03:42:07.710Z,99647.40
2018-03-28T03:44:35.299Z,99649.78
2018-03-28T03:47:02.934Z,99651.75
2018-03-28T03:49:30.533Z,99664.59
2018-03-28T03:51:58.125Z,99645.95
2018-03-28T03:54:25.763Z,99658.56
2018-03-28T03:56:53.354Z,99660.32
2018-03-28T03:59:20.946Z,99651.03
2018-03-28T04:01:48.590Z,99649.96
2018-03-28T04:04:16.177Z,99649.22
2018-03-28T04:06:43.772Z,99647.08
2018-03-28T04:09:11.400Z,99650.13
2018-03-28T04:11:39.001Z,99645.58
2018-03-28T04:14:06.600Z,99649.87
2018-03-28T04:16:34.476Z,99649.96
2018-03-28T04:19:02.080Z,99642.58
2018-03-28T04:21:29.666Z,99636.11
2018-03-28T04:23:57.300Z,99644.49
2018-03-28T04:26:24.893Z,99655.46
2018-03-28T04:28:52.494Z,99666.78
2018-03-28T04:31:20.168Z,99669.90
2018-03-28T04:33:47.769Z,99668.16
2018-03-28T04:36:15.355Z,99654.38
2018-03-28T04:38:42.987Z,99649.37
2018-03-28T04:41:10.586Z,99641.30
2018-03-28T04:43:38.178Z,99642.38
2018-03-28T04:46:05.810Z,99657.59
2018-03-28T04:48:33.399Z,99662.75
2018-03-28T04:51:01.002Z,99669.48
2018-03-28T04:53:28.643Z,99668.45
2018-03-28T04:55:56.243Z,99664.93
2018-03-28T04:58:23.846Z,99667.48
2018-03-28T05:00:51.474Z,99671.61
2018-03-28T05:03:19.082Z,99667.83
2018-03-28T05:05:46.675Z,99666.55
2018-03-28T05:08:14.303Z,99670.61
2018-03-28T05:10:41.891Z,99676.19
2018-03-28T05:13:09.482Z,99675.41
2018-03-28T05:15:37.137Z,99676.95
2018-03-28T05:18:04.748Z,99681.20
2018-03-28T05:20:32.368Z,99691.80
2018-03-28T05:23:00.010Z,99685.59
2018-03-28T05:25:27.596Z,99684.90
2018-03-28T05:27:55.186Z,99689.42
2018-03-28T05:30:22.818Z,99685.86
2018-03-28T05:32:50.402Z,99687.64
2018-03-28T05:35:17.990Z,99683.63
2018-03-28T05:37:45.618Z,99682.38
2018-03-28T05:40:13.210Z,99688.55
2018-03-28T05:42:40.797Z,99695.16
2018-03-28T05:45:08.487Z,99694.98
2018-03-28T05:47:36.071Z,99692.77
2018-03-28T05:50:03.671Z,99688.33
2018-03-28T05:52:31.300Z,99691.34
2018-03-28T05:54:58.899Z,99694.47
2018-03-28T05:57:26.502Z,99686.68
2018-03-28T05:59:54.125Z,99696.86
2018-03-28T06:02:21.716Z,99707.19
2018-03-28T06:04:49.294Z,99711.33
2018-03-28T06:07:16.926Z,99708.21
2018-03-28T06:09:44.506Z,99714.05
2018-03-28T06:12:12.100Z,99714.62
2018-03-28T06:14:39.730Z,99715.11
2018-03-28T06:17:07.314Z,99710.91
2018-03-28T06:19:34.899Z,99709.08
2018-03-28T06:22:02.522Z,99706.55
2018-03-28T06:24:30.110Z,99705.81
2018-03-28T06:26:57.701Z,99706.52
2018-03-28T06:29:25.403Z,99704.97
2018-03-28T06:31:53.000Z,99713.70
2018-03-28T06:34:20.589Z,99714.20
2018-03-28T06:36:48.206Z,99725.72
2018-03-28T06:39:15.801Z,99716.83
2018-03-28T06:41:43.402Z,99718.98
2018-03-28T06:44:11.031Z,99723.84
2018-03-28T06:49:12.386Z,99717.03
2018-03-28T06:51:39.976Z,99717.25
2018-03-28T06:54:07.568Z,99717.73
2018-03-28T06:56:35.192Z,99721.85
2018-03-28T06:59:02.809Z,99714.16
2018-03-28T07:01:30.406Z,99721.73
2018-03-28T07:03:58.074Z,99727.16
2018-03-28T07:06:25.662Z,99729.27
2018-03-28T07:08:53.291Z,99729.20
2018-03-28T07:11:20.967Z,99727.87
2018-03-28T07:13:48.611Z,99728.30
2018-03-28T07:16:17.120Z,99726.23
2018-03-28T07:18:44.753Z,99727.02
2018-03-28T07:21:12.518Z,99733.59
2018-03-28T07:23:40.108Z,99727.09
2018-03-28T07:26:07.740Z,99729.36
2018-03-28T07:28:35.555Z,99727.02
2018-03-28T07:31:04.936Z,99726.56
2018-03-28T07:33:32.671Z,99721.50
2018-03-28T07:36:00.330Z,99717.22
2018-03-28T07:38:27.930Z,99719.56
2018-03-28T07:40:58.473Z,99717.59
2018-03-28T07:43:26.068Z,99714.25
2018-03-28T07:45:53.662Z,99716.16
2018-03-28T07:48:21.381Z,99706.69
2018-03-28T07:50:49.277Z,99717.26
2018-03-28T07:53:16.994Z,99716.17
2018-03-28T07:55:44.675Z,99714.11
2018-03-28T07:58:12.267Z,99714.94
2018-03-28T08:00:39.974Z,99718.02
2018-03-28T08:03:07.602Z,99723.59
2018-03-28T08:05:35.237Z,99719.41
2018-03-28T08:08:02.858Z,99724.64
2018-03-28T08:10:30.544Z,99726.06
2018-03-28T08:12:58.207Z,99725.27
2018-03-28T08:15:25.827Z,99723.69
2018-03-28T08:17:54.816Z,99719.30
2018-03-28T08:20:22.642Z,99727.06
2018-03-28T08:22:50.229Z,99722.81
2018-03-28T08:25:18.610Z,99722.27
2018-03-28T08:27:46.894Z,99716.45
2018-03-28T08:30:14.498Z,99704.70
2018-03-28T08:32:42.357Z,99704.43
2018-03-28T08:35:09.943Z,99697.52
2018-03-28T08:37:37.643Z,99695.44
2018-03-28T08:40:05.307Z,99696.44
2018-03-28T08:42:33.003Z,99696.02
2018-03-28T08:45:01.556Z,99697.64
2018-03-28T08:47:29.199Z,99690.33
2018-03-28T08:49:56.823Z,99689.55
2018-03-28T08:52:24.509Z,99689.59
2018-03-28T08:54:52.149Z,99682.03
2018-03-28T08:57:19.793Z,99683.38
2018-03-28T08:59:48.499Z,99678.69
2018-03-28T09:02:16.339Z,99678.53
2018-03-28T09:04:44.139Z,99674.43
2018-03-28T09:09:47.371Z,99673.55
2018-03-28T09:12:15.318Z,99671.38
2018-03-28T09:14:46.458Z,99668.13
2018-03-28T09:17:14.423Z,99658.81
2018-03-28T09:19:42.159Z,99659.87
2018-03-28T09:22:13.929Z,99657.41
2018-03-28T09:27:32.549Z,99651.66
2018-03-28T09:30:01.766Z,99648.73
2018-03-28T09:32:29.463Z,99639.48
2018-03-28T09:34:57.080Z,99644.09
2018-03-28T09:37:24.860Z,99638.84
2018-03-28T09:39:52.808Z,99636.78
2018-03-28T09:42:20.405Z,99629.91
2018-03-28T09:44:48.228Z,99632.78
2018-03-28T09:47:15.827Z,99624.34
2018-03-28T09:49:43.416Z,99628.27
2018-03-28T09:52:11.114Z,99619.42
2018-03-28T09:54:41.093Z,99619.86
2018-03-28T09:57:08.785Z,99614.23
2018-03-28T09:59:36.444Z,99615.64
2018-03-28T10:02:10.519Z,99605.06
2018-03-28T10:04:43.561Z,99612.17
2018-03-28T10:07:11.159Z,99597.73
2018-03-28T10:09:38.773Z,99589.50
2018-03-28T10:12:06.397Z,99589.56
2018-03-28T10:14:33.989Z,99589.58
2018-03-28T10:17:01.621Z,99586.66
2018-03-28T10:19:30.869Z,99584.28
2018-03-28T10:21:58.554Z,99588.44
2018-03-28T10:24:27.318Z,99581.70
2018-03-28T10:26:55.005Z,99574.45
2018-03-28T10:29:23.665Z,99575.95
2018-03-28T10:31:51.310Z,99572.60
2018-03-28T10:34:19.051Z,99574.98
2018-03-28T10:36:46.648Z,99570.81
2018-03-28T10:39:14.515Z,99574.32
2018-03-28T10:41:42.160Z,99575.81
2018-03-28T10:44:09.785Z,99586.83
2018-03-28T10:46:37.399Z,99587.70
2018-03-28T10:49:07.422Z,99580.80
2018-03-28T10:51:35.156Z,99579.88
2018-03-28T10:54:02.857Z,99577.47
2018-03-28T10:56:30.499Z,99576.89
2018-03-28T10:58:58.440Z,99580.41
2018-03-28T11:01:26.139Z,99581.59
2018-03-28T11:03:53.756Z,99572.70
2018-03-28T11:06:21.359Z,99574.05
2018-03-28T11:08:49.019Z,99570.42
2018-03-28T11:11:16.656Z,99562.34
2018-03-28T11:13:44.255Z,99559.82
2018-03-28T11:16:11.856Z,99558.16
2018-03-28T11:18:39.496Z,99551.33
2018-03-28T11:21:07.083Z,99549.20
2018-03-28T11:23:34.658Z,99543.92
2018-03-28T11:26:02.293Z,99541.91
2018-03-28T11:28:29.865Z,99532.88
2018-03-28T11:30:57.442Z,99537.15
2018-03-28T11:33:25.054Z,99538.30
2018-03-28T11:35:52.891Z,99527.80
2018-03-28T11:38:20.473Z,99525.63
2018-03-28T11:40:48.078Z,99518.77
2018-03-28T11:43:15.670Z,99519.19
2018-03-28T11:45:43.279Z,99522.84
2018-03-28T11:48:10.940Z,99525.48
2018-03-28T11:50:38.529Z,99518.47
2018-03-28T11:53:06.129Z,99515.23
2018-03-28T11:55:33.759Z,99514.97
2018-03-28T11:58:01.371Z,99506.30
2018-03-28T12:00:28.958Z,99499.80
2018-03-28T12:02:56.572Z,99493.25
2018-03-28T12:05:24.154Z,99496.33
2018-03-28T12:07:51.746Z,99489.32
2018-03-28T12:10:19.374Z,99491.13
2018-03-28T12:12:46.947Z,99487.50
2018-03-28T12:15:14.542Z,99483.59
2018-03-28T12:17:42.178Z,99479.14
2018-03-28T12:20:09.766Z,99479.89
2018-03-28T12:22:37.358Z,99479.34
2018-03-28T12:25:05.025Z,99468.39
2018-03-28T12:27:32.594Z,99470.36
2018-03-28T12:30:00.182Z,99472.64
2018-03-28T12:32:27.873Z,99464.84
2018-03-28T12:34:55.469Z,99464.80
2018-03-28T12:37:23.054Z,99465.28
2018-03-28T12:39:50.680Z,99456.38
2018-03-28T12:42:18.577Z,99455.38
2018-03-28T12:44:46.168Z,99453.41
2018-03-28T12:47:13.866Z,99459.01
2018-03-28T12:49:41.492Z,99449.98
2018-03-28T12:52:09.802Z,99449.03
2018-03-28T12:54:37.422Z,99448.23
2018-03-28T12:57:04.997Z,99439.58
2018-03-28T12:59:32.571Z,99445.41
2018-03-28T13:02:00.197Z,99451.23
2018-03-28T13:04:27.781Z,99439.58
2018-03-28T13:06:55.356Z,99437.14
2018-03-28T13:09:22.981Z,99436.50
2018-03-28T13:11:50.552Z,99436.98
2018-03-28T13:14:18.134Z,99432.30
2018-03-28T13:16:45.760Z,99424.64
2018-03-28T13:19:13.353Z,99425.69
2018-03-28T13:21:40.914Z,99426.38
2018-03-28T13:24:08.543Z,99417.31
2018-03-28T13:26:36.134Z,99417.84
2018-03-28T13:29:03.709Z,99413.50
2018-03-28T13:31:31.379Z,99409.94
2018-03-28T13:33:58.951Z,99410.47
2018-03-28T13:36:26.553Z,99417.88
2018-03-28T13:38:54.173Z,99412.84
2018-03-28T13:41:21.779Z,99412.84
2018-03-28T13:43:49.366Z,99403.95
2018-03-28T13:46:16.975Z,99406.80
2018-03-28T13:48:44.542Z,99399.31
2018-03-28T13:51:12.164Z,99397.69
2018-03-28T13:53:39.780Z,99402.77
2018-03-28T13:56:07.357Z,99402.36
2018-03-28T13:58:34.938Z,99403.61
2018-03-28T14:01:02.629Z,99406.26
2018-03-28T14:03:30.206Z,99394.41
2018-03-28T14:05:57.812Z,99398.87
2018-03-28T14:08:25.446Z,99396.51
2018-03-28T14:10:53.026Z,99398.37
2018-03-28T14:13:20.609Z,99400.02
2018-03-28T14:15:48.225Z,99392.91
2018-03-28T14:18:15.805Z,99393.96
2018-03-28T14:20:43.385Z,99393.84
2018-03-28T14:23:11.013Z,99389.27
2018-03-28T14:25:38.586Z,99385.61
2018-03-28T14:28:06.184Z,99388.23
2018-03-28T14:30:33.828Z,99383.53
2018-03-28T14:33:01.407Z,99382.03
2018-03-28T14:35:29.012Z,99375.25
2018-03-28T14:37:56.632Z,99375.87
2018-03-28T14:40:24.207Z,99375.94
2018-03-28T14:42:54.590Z,99377.14
2018-03-28T14:45:19.436Z,99375.25
2018-03-28T14:47:47.013Z,99375.42
2018-03-28T14:50:14.588Z,99375.67
2018-03-28T14:52:42.207Z,99382.58
2018-03-28T14:55:09.798Z,99373.95
2018-03-28T14:57:37.394Z,99370.47
2018-03-28T15:00:05.006Z,99370.59
2018-03-28T15:02:32.585Z,99364.98
2018-03-28T15:05:00.161Z,99371.09
2018-03-28T15:07:27.784Z,99364.02
2018-03-28T15:09:55.364Z,99362.00
2018-03-28T15:12:22.948Z,99362.36
2018-03-28T15:14:50.550Z,99363.87
2018-03-28T15:17:18.160Z,99360.61
2018-03-28T15:19:45.783Z,99369.60
2018-03-28T15:22:13.416Z,99364.39
2018-03-28T15:24:41.015Z,99372.05
2018-03-28T15:27:08.612Z,99374.36
2018-03-28T15:29:36.234Z,99372.56
2018-03-28T15:32:03.821Z,99368.78
2018-03-28T15:34:31.425Z,99368.53
2018-03-28T15:36:59.072Z,99374.04
2018-03-28T15:39:26.708Z,99379.44
2018-03-28T15:41:54.286Z,99377.08
2018-03-28T15:44:21.942Z,99381.27
2018-03-28T15:46:49.531Z,99385.05
2018-03-28T15:49:17.117Z,99385.69
2018-03-28T15:51:44.764Z,99384.33
2018-03-28T15:54:12.358Z,99379.95
2018-03-28T15:56:39.976Z,99387.70
2018-03-28T15:59:07.645Z,99386.18
2018-03-28T16:01:35.268Z,99391.92
2018-03-28T16:04:02.854Z,99394.52
2018-03-28T16:06:30.496Z,99390.06
2018-03-28T16:08:58.078Z,99390.44
2018-03-28T16:11:25.711Z,99391.81
2018-03-28T16:13:53.584Z,99398.03
2018-03-28T16:16:21.164Z,99401.52
2018-03-28T16:18:48.754Z,99401.58
2018-03-28T16:21:16.373Z,99399.37
2018-03-28T16:23:43.943Z,99394.67
2018-03-28T16:26:11.526Z,99397.84
2018-03-28T16:28:39.155Z,99405.08
2018-03-28T16:31:06.731Z,99404.41
2018-03-28T16:33:34.363Z,99407.59
2018-03-28T16:36:01.986Z,99412.16
2018-03-28T16:38:29.576Z,99409.30
2018-03-28T16:40:57.481Z,99413.06
2018-03-28T16:43:25.138Z,99418.80
2018-03-28T16:45:52.738Z,99418.43
2018-03-28T16:48:20.375Z,99418.41
2018-03-28T16:50:48.008Z,99417.40
2018-03-28T16:53:15.586Z,99416.48
2018-03-28T16:55:43.155Z,99429.77
2018-03-28T16:58:10.793Z,99433.27
2018-03-28T17:00:38.386Z,99435.53
2018-03-28T17:03:05.968Z,99438.73
2018-03-28T17:05:33.575Z,99448.38
2018-03-28T17:08:01.168Z,99449.72
2018-03-28T17:10:28.746Z,99453.19
2018-03-28T17:12:56.358Z,99445.39
2018-03-28T17:17:57.755Z,99452.37
2018-03-28T17:20:25.327Z,99452.17
2018-03-28T17:22:52.920Z,99457.05
2018-03-28T17:25:20.539Z,99457.44
2018-03-28T17:27:48.115Z,99462.91
2018-03-28T17:30:15.751Z,99453.95
2018-03-28T17:32:43.381Z,99450.72
2018-03-28T17:35:10.956Z,99459.33
2018-03-28T17:37:38.531Z,99468.72
2018-03-28T17:40:06.195Z,99473.88
2018-03-28T17:42:33.789Z,99478.67
2018-03-28T17:45:01.386Z,99484.95
2018-03-28T17:47:29.035Z,99482.52
2018-03-28T17:49:56.625Z,99475.01
2018-03-28T17:52:24.200Z,99478.22
2018-03-28T17:54:51.817Z,99480.34
2018-03-28T17:57:19.414Z,99480.34
2018-03-28T17:59:46.993Z,99487.54
2018-03-28T18:02:14.605Z,99492.16
2018-03-28T18:04:42.185Z,99488.30
2018-03-28T18:07:09.764Z,99490.42
2018-03-28T18:09:37.371Z,99491.83
2018-03-28T18:12:04.958Z,99490.17
2018-03-28T18:14:32.563Z,99497.53
2018-03-28T18:17:00.178Z,99501.95
2018-03-28T18:19:27.960Z,99500.06
2018-03-28T18:21:55.573Z,99498.37
2018-03-28T18:24:23.202Z,99500.09
2018-03-28T18:26:50.773Z,99501.40
2018-03-28T18:29:18.383Z,99506.08
2018-03-28T18:31:46.020Z,99512.65
2018-03-28T18:34:13.619Z,99510.95
2018-03-28T18:36:41.189Z,99514.78
2018-03-28T18:39:08.813Z,99514.12
2018-03-28T18:41:36.397Z,99513.66
2018-03-28T18:44:03.992Z,99512.19
2018-03-28T18:46:31.619Z,99514.53
2018-03-28T18:48:59.202Z,99515.13
2018-03-28T18:51:26.785Z,99516.08
2018-03-28T18:53:54.465Z,99509.95
2018-03-28T18:56:22.051Z,99515.20
2018-03-28T18:58:49.646Z,99515.77
2018-03-28T19:01:17.276Z,99516.17
2018-03-28T19:03:44.875Z,99517.72
2018-03-28T19:06:12.455Z,99526.92
2018-03-28T19:08:40.076Z,99529.89
2018-03-28T19:11:07.658Z,99532.52
2018-03-28T19:13:35.265Z,99532.60
2018-03-28T19:16:02.879Z,99535.92
2018-03-28T19:18:30.500Z,99541.02
2018-03-28T19:20:58.100Z,99537.02
2018-03-28T19:23:25.710Z,99517.16
2018-03-28T19:25:53.289Z,99523.56
2018-03-28T19:28:20.881Z,99520.31
2018-03-28T19:30:48.511Z,99529.05
2018-03-28T19:33:16.137Z,99526.96
2018-03-28T19:35:43.812Z,99535.69
2018-03-28T19:38:11.443Z,99531.05
2018-03-28T19:40:39.042Z,99543.78
2018-03-28T19:43:06.649Z,99543.66
2018-03-28T19:45:34.254Z,99538.05
2018-03-28T19:48:01.841Z,99542.34
2018-03-28T19:50:29.569Z,99537.01
2018-03-28T19:52:57.201Z,99536.55
2018-03-28T19:55:24.786Z,99528.78
2018-03-28T19:57:52.383Z,99518.20
2018-03-28T20:00:20.015Z,99507.77
2018-03-28T20:02:47.594Z,99504.02
2018-03-28T20:05:15.178Z,99513.95
2018-03-28T20:07:42.835Z,99525.33
2018-03-28T20:10:10.399Z,99520.77
2018-03-28T20:12:37.972Z,99523.77
2018-03-28T20:15:05.586Z,99531.48
2018-03-28T20:17:35.901Z,99532.72
2018-03-28T20:20:03.665Z,99531.36
2018-03-28T20:22:31.297Z,99529.75
2018-03-28T20:24:58.884Z,99531.76
2018-03-28T20:27:26.465Z,99536.27
2018-03-28T20:29:54.081Z,99527.38
2018-03-28T20:32:21.672Z,99521.62
2018-03-28T20:34:49.266Z,99518.33
2018-03-28T20:37:16.881Z,99529.09
2018-03-28T20:39:44.460Z,99522.39
2018-03-28T20:42:12.081Z,99537.11
2018-03-28T20:44:39.682Z,99514.72
2018-03-28T20:47:07.284Z,99518.19
2018-03-28T20:49:34.913Z,99512.84
2018-03-28T20:52:02.542Z,99517.63
2018-03-28T20:54:30.146Z,99524.19
2018-03-28T20:56:57.735Z,99523.30
2018-03-28T20:59:25.457Z,99530.08
2018-03-28T21:01:53.048Z,99532.38
2018-03-28T21:04:20.662Z,99538.66
2018-03-28T21:06:48.295Z,99547.17
2018-03-28T21:09:16.819Z,99541.15
2018-03-28T21:11:44.409Z,99543.20
2018-03-28T21:14:12.033Z,99539.73
2018-03-28T21:16:39.610Z,99546.28
2018-03-28T21:19:07.220Z,99549.50
2018-03-28T21:21:34.859Z,99541.83
2018-03-28T21:24:02.465Z,99547.50
2018-03-28T21:26:30.046Z,99553.05
2018-03-28T21:28:57.692Z,99545.30
2018-03-28T21:31:25.284Z,99540.09
2018-03-28T21:33:52.863Z,99552.95
2018-03-28T21:36:20.473Z,99553.95
2018-03-28T21:38:48.054Z,99551.37
2018-03-28T21:41:15.645Z,99555.84
2018-03-28T21:43:43.294Z,99555.10
2018-03-28T21:46:10.918Z,99552.61
2018-03-28T21:48:38.594Z,99551.55
2018-03-28T21:51:06.228Z,99546.43
2018-03-28T21:53:33.808Z,99546.27
2018-03-28T21:56:01.390Z,99545.86
2018-03-28T21:58:29.015Z,99539.73
2018-03-28T22:00:56.609Z,99538.40
2018-03-28T22:03:24.236Z,99538.88
2018-03-28T22:05:52.032Z,99546.39
2018-03-28T22:08:19.708Z,99541.86
2018-03-28T22:10:47.339Z,99544.86
2018-03-28T22:13:14.975Z,99544.27
2018-03-28T22:15:42.577Z,99534.94
2018-03-28T22:18:10.162Z,99530.29
2018-03-28T22:20:37.794Z,99524.79
2018-03-28T22:23:05.379Z,99520.69
2018-03-28T22:25:32.971Z,99519.44
2018-03-28T22:28:00.603Z,99522.24
2018-03-28T22:30:28.207Z,99527.31
2018-03-28T22:32:55.804Z,99527.47
2018-03-28T22:35:23.450Z,99522.34
2018-03-28T22:37:51.042Z,99525.56
2018-03-28T22:40:18.657Z,99527.14
2018-03-28T22:42:46.286Z,99533.91
2018-03-28T22:45:13.925Z,99524.51
2018-03-28T22:47:41.537Z,99521.63
2018-03-28T22:50:09.167Z,99516.92
2018-03-28T22:52:36.760Z,99515.52
2018-03-28T22:55:04.363Z,99501.00
2018-03-28T22:57:32.002Z,99507.19
2018-03-28T22:59:59.599Z,99498.34
2018-03-28T23:02:27.205Z,99500.09
2018-03-28T23:04:54.860Z,99494.88
2018-03-28T23:07:22.456Z,99493.47
2018-03-28T23:09:50.090Z,99481.58
2018-03-28T23:12:17.722Z,99474.50
2018-03-28T23:14:45.326Z,99475.56
2018-03-28T23:17:12.926Z,99471.95
2018-03-28T23:19:40.610Z,99466.89
2018-03-28T23:22:08.285Z,99458.73
2018-03-28T23:24:35.886Z,99460.78
2018-03-28T23:27:03.639Z,99460.72
2018-03-28T23:29:31.241Z,99453.53
2018-03-28T23:31:58.838Z,99458.33
2018-03-28T23:34:26.472Z,99453.63
2018-03-28T23:36:54.077Z,99455.59
2018-03-28T23:39:21.682Z,99453.05
2018-03-28T23:41:49.310Z,99454.03
2018-03-28T23:44:16.922Z,99463.59
2018-03-28T23:46:44.591Z,99463.00
2018-03-28T23:49:12.242Z,99467.70
2018-03-28T23:51:39.842Z,99471.00
2018-03-28T23:54:07.449Z,99476.03
2018-03-28T23:56:35.090Z,99478.83
2018-03-28T23:59:02.694Z,99483.84
